PTCMS SBPS-SBTE
Flight info
| Callsign | PTCMS |
|---|---|
| Flight time | N/A |
| Altitude | FL350 |
| Route | ZUMBA PAPAL MUGUR KOTRO ORUSU RONCA |
| Aircraft | A320/M-SDE3FGHIRWY/LB1 |
Departure
| Time | 2026-05-05 01:34 |
|---|---|
| Airport | Porto Seguro International Airport (SBPS) |
Arrival
| Time | N/A |
|---|---|
| Airport | Senador Petrônio Portela Airport (SBTE) |
| Time | Latitude | Longitude | Altitude | Speed | Heading |
|---|---|---|---|---|---|
| 2026-05-05 01:09 | -16.44068 | -39.08130 | 160 ft | 0 kts | 164° |
| 2026-05-05 01:27 | -16.44056 | -39.08133 | 160 ft | 2 kts | 164° |
| 2026-05-05 01:27 | -16.44050 | -39.08135 | 160 ft | 2 kts | 164° |
| 2026-05-05 01:27 | -16.44049 | -39.08136 | 160 ft | 2 kts | 164° |
| 2026-05-05 01:27 | -16.44036 | -39.08139 | 160 ft | 2 kts | 192° |
| 2026-05-05 01:28 | -16.44024 | -39.08133 | 160 ft | 2 kts | 243° |
| 2026-05-05 01:28 | -16.44018 | -39.08120 | 160 ft | 2 kts | 243° |
| 2026-05-05 01:28 | -16.44014 | -39.08112 | 160 ft | 0 kts | 243° |
| 2026-05-05 01:29 | -16.44029 | -39.08162 | 160 ft | 10 kts | 251° |
| 2026-05-05 01:30 | -16.44050 | -39.08228 | 160 ft | 9 kts | 252° |
| 2026-05-05 01:30 | -16.44044 | -39.08290 | 160 ft | 9 kts | 328° |
| 2026-05-05 01:30 | -16.43961 | -39.08315 | 159 ft | 15 kts | 348° |
| 2026-05-05 01:30 | -16.43890 | -39.08257 | 159 ft | 14 kts | 75° |
| 2026-05-05 01:31 | -16.43861 | -39.08128 | 160 ft | 28 kts | 76° |
| 2026-05-05 01:31 | -16.43799 | -39.07895 | 160 ft | 34 kts | 73° |
| 2026-05-05 01:31 | -16.43733 | -39.07658 | 162 ft | 34 kts | 76° |
| 2026-05-05 01:31 | -16.43673 | -39.07429 | 163 ft | 28 kts | 66° |
| 2026-05-05 01:32 | -16.43635 | -39.07278 | 161 ft | 8 kts | 79° |
| 2026-05-05 01:32 | -16.43649 | -39.07223 | 160 ft | 8 kts | 99° |
| 2026-05-05 01:32 | -16.43622 | -39.07206 | 160 ft | 5 kts | 328° |
| 2026-05-05 01:32 | -16.43619 | -39.07229 | 160 ft | 2 kts | 255° |
| 2026-05-05 01:33 | -16.43620 | -39.07233 | 160 ft | 0 kts | 253° |
| 2026-05-05 01:34 | -16.43635 | -39.07285 | 161 ft | 28 kts | 253° |
| 2026-05-05 01:34 | -16.43776 | -39.07802 | 162 ft | 118 kts | 255° |
| 2026-05-05 01:34 | -16.44037 | -39.08826 | 447 ft | 159 kts | 256° |
| 2026-05-05 01:34 | -16.44265 | -39.09985 | 1094 ft | 175 kts | 261° |
| 2026-05-05 01:35 | -16.44492 | -39.11282 | 1994 ft | 182 kts | 261° |
| 2026-05-05 01:35 | -16.44275 | -39.12584 | 2552 ft | 195 kts | 303° |
| 2026-05-05 01:35 | -16.43173 | -39.13457 | 3093 ft | 209 kts | 334° |
| 2026-05-05 01:35 | -16.41763 | -39.14028 | 3623 ft | 227 kts | 339° |
| 2026-05-05 01:36 | -16.40210 | -39.14560 | 4180 ft | 244 kts | 340° |
| 2026-05-05 01:36 | -16.38545 | -39.15128 | 4769 ft | 260 kts | 339° |
| 2026-05-05 01:36 | -16.36812 | -39.15745 | 5578 ft | 266 kts | 339° |
| 2026-05-05 01:36 | -16.35062 | -39.16399 | 6455 ft | 269 kts | 338° |
| 2026-05-05 01:37 | -16.33301 | -39.17079 | 7329 ft | 272 kts | 337° |
| 2026-05-05 01:37 | -16.31519 | -39.17779 | 8178 ft | 276 kts | 337° |
| 2026-05-05 01:37 | -16.29721 | -39.18499 | 9016 ft | 279 kts | 336° |
| 2026-05-05 01:37 | -16.27904 | -39.19236 | 9823 ft | 283 kts | 336° |
| 2026-05-05 01:38 | -16.26040 | -39.19996 | 10397 ft | 296 kts | 336° |
| 2026-05-05 01:38 | -16.24072 | -39.20799 | 10826 ft | 313 kts | 336° |
| 2026-05-05 01:38 | -16.22002 | -39.21640 | 11328 ft | 325 kts | 336° |
| 2026-05-05 01:38 | -16.19880 | -39.22501 | 12052 ft | 330 kts | 336° |
| 2026-05-05 01:39 | -16.17731 | -39.23369 | 12785 ft | 333 kts | 336° |
| 2026-05-05 01:39 | -16.15563 | -39.24245 | 13503 ft | 337 kts | 336° |
| 2026-05-05 01:39 | -16.13378 | -39.25128 | 14196 ft | 340 kts | 336° |
| 2026-05-05 01:39 | -16.11176 | -39.26021 | 14847 ft | 343 kts | 336° |
| 2026-05-05 01:40 | -16.08937 | -39.26930 | 15527 ft | 347 kts | 336° |
| 2026-05-05 01:40 | -16.06683 | -39.27844 | 16164 ft | 350 kts | 336° |
| 2026-05-05 01:40 | -16.04405 | -39.28762 | 16791 ft | 353 kts | 336° |
| 2026-05-05 01:40 | -16.02107 | -39.29690 | 17402 ft | 356 kts | 336° |
| 2026-05-05 01:41 | -15.99793 | -39.30625 | 17991 ft | 360 kts | 336° |
| 2026-05-05 01:41 | -15.97456 | -39.31567 | 18583 ft | 363 kts | 336° |
| 2026-05-05 01:41 | -15.95094 | -39.32518 | 19159 ft | 366 kts | 336° |
| 2026-05-05 01:41 | -15.92717 | -39.33473 | 19723 ft | 369 kts | 336° |
| 2026-05-05 01:42 | -15.90319 | -39.34438 | 20279 ft | 372 kts | 335° |
| 2026-05-05 01:42 | -15.87898 | -39.35414 | 20827 ft | 375 kts | 335° |
| 2026-05-05 01:42 | -15.85465 | -39.36397 | 21358 ft | 378 kts | 335° |
| 2026-05-05 01:42 | -15.83006 | -39.37389 | 21887 ft | 381 kts | 335° |
| 2026-05-05 01:43 | -15.80533 | -39.38386 | 22413 ft | 384 kts | 335° |
| 2026-05-05 01:43 | -15.78036 | -39.39393 | 22902 ft | 387 kts | 335° |
| 2026-05-05 01:43 | -15.75523 | -39.40407 | 23405 ft | 390 kts | 335° |
| 2026-05-05 01:43 | -15.72988 | -39.41428 | 23883 ft | 393 kts | 335° |
| 2026-05-05 01:44 | -15.70437 | -39.42455 | 24343 ft | 395 kts | 335° |
| 2026-05-05 01:44 | -15.67873 | -39.43491 | 24786 ft | 398 kts | 335° |
| 2026-05-05 01:44 | -15.65290 | -39.44533 | 25215 ft | 401 kts | 335° |
| 2026-05-05 01:44 | -15.62690 | -39.45576 | 25627 ft | 403 kts | 335° |
| 2026-05-05 01:45 | -15.60070 | -39.46629 | 26027 ft | 405 kts | 335° |
| 2026-05-05 01:45 | -15.57441 | -39.47690 | 26407 ft | 408 kts | 335° |
| 2026-05-05 01:45 | -15.54794 | -39.48757 | 26779 ft | 410 kts | 335° |
| 2026-05-05 01:45 | -15.52129 | -39.49829 | 27147 ft | 413 kts | 335° |
| 2026-05-05 01:46 | -15.49450 | -39.50907 | 27519 ft | 415 kts | 335° |
| 2026-05-05 01:46 | -15.46762 | -39.51990 | 27872 ft | 417 kts | 335° |
| 2026-05-05 01:46 | -15.44054 | -39.53080 | 28214 ft | 419 kts | 335° |
| 2026-05-05 01:46 | -15.41334 | -39.54171 | 28515 ft | 421 kts | 335° |
| 2026-05-05 01:47 | -15.38625 | -39.55254 | 28834 ft | 423 kts | 335° |
| 2026-05-05 01:47 | -15.36098 | -39.56264 | 29120 ft | 425 kts | 335° |
| 2026-05-05 01:47 | -15.33337 | -39.57368 | 29437 ft | 427 kts | 335° |
| 2026-05-05 01:47 | -15.30566 | -39.58479 | 29758 ft | 429 kts | 335° |
| 2026-05-05 01:48 | -15.27785 | -39.59596 | 30056 ft | 431 kts | 335° |
| 2026-05-05 01:48 | -15.24984 | -39.60719 | 30349 ft | 433 kts | 335° |
| 2026-05-05 01:48 | -15.22176 | -39.61843 | 30616 ft | 435 kts | 335° |
| 2026-05-05 01:48 | -15.19579 | -39.62884 | 30899 ft | 445 kts | 335° |
| 2026-05-05 01:49 | -15.16775 | -39.64014 | 31740 ft | 457 kts | 335° |
| 2026-05-05 01:49 | -15.13846 | -39.65187 | 33451 ft | 445 kts | 335° |
| 2026-05-05 01:49 | -15.11010 | -39.66296 | 35404 ft | 429 kts | 336° |
| 2026-05-05 01:49 | -15.08225 | -39.67350 | 36847 ft | 428 kts | 336° |
| 2026-05-05 01:50 | -15.05372 | -39.68400 | 37371 ft | 447 kts | 337° |
| 2026-05-05 01:50 | -15.02346 | -39.69488 | 37110 ft | 478 kts | 338° |
| 2026-05-05 01:50 | -14.99101 | -39.70637 | 36700 ft | 509 kts | 338° |
| 2026-05-05 01:50 | -14.95643 | -39.71851 | 35865 ft | 543 kts | 338° |
| 2026-05-05 01:51 | -14.91947 | -39.73145 | 31408 ft | 593 kts | 338° |
| 2026-05-05 01:51 | -14.87770 | -39.74612 | 23408 ft | 670 kts | 339° |
| 2026-05-05 01:51 | -14.87152 | -39.74827 | 22132 ft | 0 kts | 340° |
| 2026-05-05 01:52 | -16.44068 | -39.08130 | 84 ft | 0 kts | 164° |